Tuxtla Gutiérrez, México

8:52 PM CDT en Agosto 28, 2016 (GMT -0500)
Francisco Sarabia | | Change Station

Alt 1516 ft 16.56 °N, 93.03 °W | Updated 1 hour ago

Overcast
Nublado
75 ° F
Sensación térmica 75 ° F
N
6
Viento Variable Viento desde Oeste

Hoy
Alta -- | Baja -- ° F
--% Posibilidad de precipitaciones
Ayer
Alta -- | Baja -- ° F
Precip. -- pul
Presión 29.90 pul
Visibilidad 5.0 Millas
Nubes Nubes dispersas 2000 ft
Muy nublado 8000 ft
Nublado 30000 ft
Punto de rocío 72 ° F
Humedad 89%
Precipitaciones 5.25 pul
Espesor de la nieve No disponible.
6:58 AM 7:28 PM
Creciente menguante, 12% visible
METAR MMTG 290043Z 26005KT 5SM SCT020 BKN080 OVC300 24/22 A2990 RMK 8/467 HZY ISOLD CB
Presión 29.90 pul
Visibilidad 5.0 Millas
Nubes Nubes dispersas 2000 ft
Muy nublado 8000 ft
Nublado 30000 ft
Punto de rocío 72 ° F
Humedad 89%
Precipitaciones 5.25 pul
Espesor de la nieve No disponible.
6:58 AM 7:28 PM
Creciente menguante, 12% visible
METAR MMTG 290043Z 26005KT 5SM SCT020 BKN080 OVC300 24/22 A2990 RMK 8/467 HZY ISOLD CB

10-Day Weather Forecast

No radar image for this location.
×

Almanac

Astronomía

Aug. 28, 2016 Salida Puesta
Hora real
Crepúsculo civil
Crepúsculo náutico
Crepúsculo astronómico
Luna
Horas de luz
Horas de luz
Tomorrow will be .
, % of the Moon is Illuminated

Extremos de hoy

Máximos del país Bajas del país

Community

WunderPhotos

Upload Photos

1,935,757 ¡fotos cargadas!

WunderBlog® & News

Nearby

Calidad del aire

  Calidad del aire Índice AQ Contaminante
Not available.

Grosos de nieve

Estación Profundido Altura

Actividad de terremotos

Ciudad Distance Mag. Tiempo y dato
Magnitud mínima muestra es 2,5.

Temperaturas de aguas costeras

Lugar Temperatura

Stations

Estaciones meteorológicas cercanas

Ubicación de la estación Temp. Vientos helados Punto de rocío Humedad Viento Precip. Alt Actualizado Tipo